Terminal Aerodrome Forecast
Issued by NWS Omaha/Valley, NE

Home | Current Version | Previous Version | Text Only | Print | Product List | Glossary Off
Versions: 1 2 3 4 5 6 7 8 9 10 11 12 13 14 15 16 17 18 19 20 21 22 23 24 25 26 27 28 29 30 31 32 33 34 35 36 37 38 39 40 41 42

000
FTUS43 KOAX 140201 AAA
TAFOFK
TAF AMD
KOFK 140201Z 1402/1424 14013KT P6SM OVC028
     FM140400 15018G28KT P6SM OVC025
      TEMPO 1407/1411 18014KT 5SM -SN BKN020
     FM141100 25010KT P6SM OVC025
     FM141300 30010KT P6SM SCT050
      TEMPO 1413/1416 BKN025=

USA.gov is the U.S. government's official web portal to all federal, state and local government web resources and services.